Time;durP1;ratioP1;P1;durP2;ratioP2;P2;SDS_P1;SDS_P2;PMS_P1;PMS_P2;Temp;Humidity;BMP_temperature;BMP_pressure;BME280_temperature;BME280_humidity;BME280_pressure;Samples;Min_cycle;Max_cycle;Signal;HPM_P1;HPM_P2
2023/10/01 00:00:21;;;;;;;7.22;1.80;;;;;;;;;;4976735;28;20035;-63
2023/10/01 00:02:53;;;;;;;6.90;1.55;;;;;;;;;;4976603;28;20117;-62
2023/10/01 00:05:22;;;;;;;5.70;1.90;;;;;;;;;;4972704;28;20023;-62
2023/10/01 00:07:51;;;;;;;6.82;1.63;;;;;;;;;;4975864;28;20456;-62
2023/10/01 00:10:17;;;;;;;6.32;1.50;;;;;;;;;;4976412;28;20027;-63
2023/10/01 00:12:47;;;;;;;11.82;2.13;;;;;;;;;;4976289;28;20037;-61
2023/10/01 00:15:16;;;;;;;8.73;1.45;;;;;;;;;;4976250;28;20437;-62
2023/10/01 00:17:45;;;;;;;6.72;1.73;;;;;;;;;;4976136;28;20022;-62
2023/10/01 00:20:23;;;;;;;6.25;1.70;;;;;;;;;;4976403;28;20494;-62
2023/10/01 00:22:56;;;;;;;5.03;1.45;;;;;;;;;;4975930;28;20059;-64
2023/10/01 00:25:23;;;;;;;4.00;1.83;;;;;;;;;;4976123;28;20023;-62
2023/10/01 00:27:50;;;;;;;6.18;1.50;;;;;;;;;;4974921;28;20031;-62
2023/10/01 00:30:16;;;;;;;6.70;1.67;;;;;;;;;;4975924;28;20131;-62
2023/10/01 00:32:42;;;;;;;7.47;1.60;;;;;;;;;;4974885;28;20058;-62
2023/10/01 00:35:10;;;;;;;5.55;1.63;;;;;;;;;;4975985;28;20026;-66
2023/10/01 00:37:37;;;;;;;3.25;1.42;;;;;;;;;;4975754;28;20096;-63
2023/10/01 00:40:05;;;;;;;7.00;1.85;;;;;;;;;;4975981;28;20022;-62
2023/10/01 00:42:35;;;;;;;4.22;1.50;;;;;;;;;;4974644;28;20023;-63
2023/10/01 00:45:11;;;;;;;5.60;1.40;;;;;;;;;;4975831;28;20584;-63
2023/10/01 00:47:40;;;;;;;4.68;1.60;;;;;;;;;;4975852;28;20042;-62
2023/10/01 00:50:08;;;;;;;6.57;1.40;;;;;;;;;;4975929;28;20034;-62
2023/10/01 00:52:34;;;;;;;8.02;2.05;;;;;;;;;;4975477;28;20035;-62
2023/10/01 00:55:00;;;;;;;4.30;1.65;;;;;;;;;;4975454;28;20030;-63
2023/10/01 00:57:26;;;;;;;6.80;1.75;;;;;;;;;;4975557;28;20038;-63
2023/10/01 00:59:52;;;;;;;8.70;2.17;;;;;;;;;;4975481;28;20030;-63
2023/10/01 01:02:18;;;;;;;5.65;1.75;;;;;;;;;;4975531;28;20383;-63
2023/10/01 01:04:47;;;;;;;5.22;1.63;;;;;;;;;;4981700;28;20062;-63
2023/10/01 01:07:14;;;;;;;4.63;1.45;;;;;;;;;;4956409;28;20062;-63
2023/10/01 01:09:43;;;;;;;5.22;1.40;;;;;;;;;;4975342;28;20019;-65
2023/10/01 01:12:09;;;;;;;5.85;1.38;;;;;;;;;;4975079;28;20089;-64
2023/10/01 01:14:36;;;;;;;5.03;1.30;;;;;;;;;;4975263;28;20090;-64
2023/10/01 01:17:02;;;;;;;7.18;1.83;;;;;;;;;;4975289;28;20022;-63
2023/10/01 01:19:29;;;;;;;8.20;1.70;;;;;;;;;;4974039;28;20085;-63
2023/10/01 01:21:56;;;;;;;4.72;1.50;;;;;;;;;;4974994;28;20026;-63
2023/10/01 01:24:24;;;;;;;8.00;1.50;;;;;;;;;;4975272;28;20076;-63
2023/10/01 01:26:51;;;;;;;7.07;1.77;;;;;;;;;;4975260;28;20034;-63
2023/10/01 01:29:29;;;;;;;4.50;1.60;;;;;;;;;;4975018;28;20472;-63
2023/10/01 01:32:32;;;;;;;7.80;1.40;;;;;;;;;;4974986;28;20034;-63
2023/10/01 01:34:52;;;;;;;3.70;1.42;;;;;;;;;;4972591;28;20039;-66
2023/10/01 01:37:36;;;;;;;5.57;1.83;;;;;;;;;;4974854;28;20504;-63
2023/10/01 01:40:09;;;;;;;6.40;1.83;;;;;;;;;;4970749;28;20027;-64
2023/10/01 01:42:34;;;;;;;11.63;1.67;;;;;;;;;;4965522;28;20518;-63
2023/10/01 01:47:44;;;;;;;7.70;1.50;;;;;;;;;;4955614;29;20134;-68
2023/10/01 01:50:21;;;;;;;5.50;1.85;;;;;;;;;;4955214;28;20071;-64
2023/10/01 01:52:49;;;;;;;4.93;1.50;;;;;;;;;;4955177;28;20027;-62
2023/10/01 01:55:27;;;;;;;11.20;3.35;;;;;;;;;;4955231;28;20490;-63
2023/10/01 01:58:10;;;;;;;5.88;1.98;;;;;;;;;;4955534;28;20114;-63
2023/10/01 02:01:01;;;;;;;8.93;1.60;;;;;;;;;;4955236;28;20078;-64
2023/10/01 02:03:25;;;;;;;6.78;1.83;;;;;;;;;;4959357;28;20825;-63
2023/10/01 02:05:52;;;;;;;5.60;1.80;;;;;;;;;;4978586;28;20532;-63
2023/10/01 02:08:24;;;;;;;12.55;4.28;;;;;;;;;;4973524;28;20117;-64
2023/10/01 02:10:51;;;;;;;5.68;1.50;;;;;;;;;;4973710;28;20034;-64
2023/10/01 02:13:17;;;;;;;5.93;1.70;;;;;;;;;;4973644;28;20038;-69
2023/10/01 02:15:45;;;;;;;6.00;1.50;;;;;;;;;;4973633;28;20031;-63
2023/10/01 02:18:16;;;;;;;5.22;1.40;;;;;;;;;;4973348;28;20114;-63
2023/10/01 02:20:44;;;;;;;7.20;1.83;;;;;;;;;;4973587;28;20034;-63
2023/10/01 02:23:13;;;;;;;8.88;2.20;;;;;;;;;;4973431;28;20073;-63
2023/10/01 02:25:46;;;;;;;5.63;1.75;;;;;;;;;;4973545;28;20023;-65
2023/10/01 02:28:15;;;;;;;7.55;1.60;;;;;;;;;;4973519;28;20027;-69
2023/10/01 02:30:46;;;;;;;9.97;1.97;;;;;;;;;;4973348;28;20042;-63
2023/10/01 02:33:21;;;;;;;4.80;1.40;;;;;;;;;;4971939;28;20268;-63
2023/10/01 02:35:55;;;;;;;11.07;1.95;;;;;;;;;;4973329;28;20018;-63
2023/10/01 02:38:36;;;;;;;5.28;1.67;;;;;;;;;;4973447;28;20112;-63
2023/10/01 02:41:08;;;;;;;6.57;1.95;;;;;;;;;;4971997;28;20054;-69
2023/10/01 02:43:34;;;;;;;6.18;1.55;;;;;;;;;;4973161;28;20484;-65
2023/10/01 02:46:13;;;;;;;5.80;1.73;;;;;;;;;;4973278;28;20039;-63
2023/10/01 02:48:42;;;;;;;4.72;1.42;;;;;;;;;;4972870;28;20034;-63
2023/10/01 02:51:14;;;;;;;6.10;1.37;;;;;;;;;;4973167;28;20480;-63
2023/10/01 02:54:01;;;;;;;7.50;1.67;;;;;;;;;;4973075;28;20034;-62
2023/10/01 02:56:33;;;;;;;5.07;1.55;;;;;;;;;;4973123;28;20106;-63
2023/10/01 02:59:15;;;;;;;7.20;2.05;;;;;;;;;;4973143;28;20499;-63
2023/10/01 03:01:47;;;;;;;9.60;1.55;;;;;;;;;;4973016;28;20039;-63
2023/10/01 03:04:17;;;;;;;6.22;1.60;;;;;;;;;;4982270;28;20027;-63
2023/10/01 03:06:56;;;;;;;4.63;1.55;;;;;;;;;;4920744;28;1341730;-64
2023/10/01 03:09:31;;;;;;;9.30;2.03;;;;;;;;;;4975648;28;20505;-63
2023/10/01 03:12:24;;;;;;;5.35;1.55;;;;;;;;;;4977604;28;20070;-69
2023/10/01 03:15:00;;;;;;;7.15;1.83;;;;;;;;;;4977501;28;20357;-63
2023/10/01 03:17:27;;;;;;;6.03;1.73;;;;;;;;;;4977388;28;20035;-63
2023/10/01 03:19:53;;;;;;;6.88;1.45;;;;;;;;;;4977534;28;20058;-65
2023/10/01 03:22:31;;;;;;;6.38;2.00;;;;;;;;;;4977305;28;20476;-64
2023/10/01 03:24:58;;;;;;;4.43;1.40;;;;;;;;;;4977224;28;20113;-63
2023/10/01 03:27:27;;;;;;;7.80;1.55;;;;;;;;;;4977392;28;20027;-64
2023/10/01 03:30:19;;;;;;;4.88;1.45;;;;;;;;;;4977222;28;20046;-63
2023/10/01 03:32:40;;;;;;;5.82;1.75;;;;;;;;;;4976882;28;20121;-63
2023/10/01 03:35:08;;;;;;;7.00;2.15;;;;;;;;;;4977057;28;20511;-63
2023/10/01 03:37:40;;;;;;;5.43;1.50;;;;;;;;;;4977167;28;20334;-63
2023/10/01 03:40:21;;;;;;;7.88;1.90;;;;;;;;;;4977302;28;20031;-63
2023/10/01 03:42:51;;;;;;;9.23;2.17;;;;;;;;;;4977010;28;20031;-66
2023/10/01 03:45:38;;;;;;;4.97;1.40;;;;;;;;;;4976763;28;20030;-63
2023/10/01 03:48:06;;;;;;;4.97;1.38;;;;;;;;;;4977018;28;20121;-64
2023/10/01 03:50:39;;;;;;;5.63;1.65;;;;;;;;;;4976841;28;20058;-63
2023/10/01 03:53:11;;;;;;;4.38;1.23;;;;;;;;;;4977016;28;20035;-63
2023/10/01 03:55:39;;;;;;;5.28;1.90;;;;;;;;;;4976883;28;20031;-68
2023/10/01 04:00:40;;;;;;;10.55;1.92;;;;;;;;;;4976544;28;20030;-63
2023/10/01 04:03:14;;;;;;;7.57;2.03;;;;;;;;;;4976835;28;20110;-63
2023/10/01 04:05:44;;;;;;;7.55;1.95;;;;;;;;;;4982995;28;20092;-63
2023/10/01 04:08:11;;;;;;;;;;;;;;;;;;4965220;28;20046;-64
2023/10/01 04:10:38;;;;;;;4.68;1.40;;;;;;;;;;4976502;28;19940;-65
2023/10/01 04:13:27;;;;;;;7.75;1.77;;;;;;;;;;4976613;28;20499;-63
2023/10/01 04:15:57;;;;;;;4.43;1.80;;;;;;;;;;4976193;28;20023;-63
2023/10/01 04:18:24;;;;;;;5.05;1.48;;;;;;;;;;4976538;28;20038;-63
2023/10/01 04:23:29;;;;;;;7.63;1.80;;;;;;;;;;4976283;28;20031;-63
2023/10/01 04:26:05;;;;;;;7.43;1.85;;;;;;;;;;4976309;28;20519;-62
2023/10/01 04:28:44;;;;;;;9.32;1.65;;;;;;;;;;4976010;28;20035;-63
2023/10/01 04:31:14;;;;;;;7.90;1.60;;;;;;;;;;4976157;28;20445;-65
2023/10/01 04:33:42;;;;;;;;;;;;;;;;;;4976551;28;20105;-63
2023/10/01 04:36:11;;;;;;;5.45;1.70;;;;;;;;;;4976101;28;19921;-63
2023/10/01 04:38:38;;;;;;;6.10;1.75;;;;;;;;;;4976018;28;20035;-63
2023/10/01 04:41:03;;;;;;;6.63;1.73;;;;;;;;;;4975960;28;20026;-63
2023/10/01 04:43:35;;;;;;;3.63;1.52;;;;;;;;;;4975770;28;20162;-63
2023/10/01 04:46:08;;;;;;;5.85;1.40;;;;;;;;;;4976103;28;20026;-63
2023/10/01 04:48:36;;;;;;;4.25;1.40;;;;;;;;;;4975843;28;20552;-64
2023/10/01 04:51:07;;;;;;;7.78;1.50;;;;;;;;;;4974607;28;20079;-65
2023/10/01 04:53:33;;;;;;;6.03;1.60;;;;;;;;;;4975941;28;20027;-63
2023/10/01 04:56:05;;;;;;;4.80;1.70;;;;;;;;;;4975839;28;20027;-64
2023/10/01 04:58:38;;;;;;;5.57;1.55;;;;;;;;;;4975416;28;20473;-63
2023/10/01 05:01:13;;;;;;;7.00;1.67;;;;;;;;;;4975744;28;20031;-65
2023/10/01 05:03:39;;;;;;;6.72;1.73;;;;;;;;;;4978678;28;20390;-65
2023/10/01 05:06:13;;;;;;;6.45;2.17;;;;;;;;;;4976282;28;20473;-63
2023/10/01 05:08:39;;;;;;;4.10;1.70;;;;;;;;;;4967363;28;20399;-63
2023/10/01 05:11:10;;;;;;;6.68;1.83;;;;;;;;;;4975367;28;20030;-63
2023/10/01 05:13:39;;;;;;;7.95;1.65;;;;;;;;;;4975357;28;20035;-62
2023/10/01 05:16:06;;;;;;;7.03;1.70;;;;;;;;;;4975617;28;20077;-63
2023/10/01 05:18:33;;;;;;;10.85;1.50;;;;;;;;;;4975457;28;20027;-63
2023/10/01 05:20:59;;;;;;;5.93;1.90;;;;;;;;;;4975351;28;20527;-64
2023/10/01 05:23:26;;;;;;;7.00;1.60;;;;;;;;;;4975221;28;20081;-63
2023/10/01 05:25:51;;;;;;;6.05;1.77;;;;;;;;;;4975300;28;20366;-62
2023/10/01 05:28:34;;;;;;;5.45;1.88;;;;;;;;;;4974555;28;20030;-62
2023/10/01 05:31:07;;;;;;;7.03;2.08;;;;;;;;;;4975083;28;20118;-63
2023/10/01 05:33:33;;;;;;;4.30;1.90;;;;;;;;;;4975101;28;20034;-63
2023/10/01 05:36:03;;;;;;;5.78;1.70;;;;;;;;;;4973799;28;20027;-62
2023/10/01 05:38:33;;;;;;;5.75;1.80;;;;;;;;;;4974960;28;20469;-63
2023/10/01 05:41:03;;;;;;;5.00;1.92;;;;;;;;;;4974969;28;20449;-63
2023/10/01 05:43:35;;;;;;;8.23;1.77;;;;;;;;;;4974892;28;20034;-63
2023/10/01 05:46:01;;;;;;;6.00;1.65;;;;;;;;;;4974830;28;20034;-63
2023/10/01 05:48:29;;;;;;;4.43;1.77;;;;;;;;;;4975041;28;20027;-62
2023/10/01 05:50:57;;;;;;;5.03;1.60;;;;;;;;;;4974871;28;20061;-63
2023/10/01 05:53:23;;;;;;;7.60;1.95;;;;;;;;;;4974455;28;20026;-63
2023/10/01 05:55:49;;;;;;;6.50;1.60;;;;;;;;;;4974401;28;20038;-63
2023/10/01 05:58:16;;;;;;;6.90;1.80;;;;;;;;;;4974602;28;20023;-63
2023/10/01 06:00:45;;;;;;;5.78;1.67;;;;;;;;;;4974590;28;20109;-63
2023/10/01 06:03:17;;;;;;;8.05;2.08;;;;;;;;;;4975293;28;20038;-63
2023/10/01 06:05:49;;;;;;;7.32;1.90;;;;;;;;;;4981020;28;20377;-63
2023/10/01 06:08:17;;;;;;;8.63;2.15;;;;;;;;;;4963237;28;20129;-63
2023/10/01 06:11:05;;;;;;;6.65;1.67;;;;;;;;;;4974057;28;20503;-63
2023/10/01 06:13:48;;;;;;;5.32;2.05;;;;;;;;;;4974423;28;20027;-63
2023/10/01 06:16:15;;;;;;;5.75;2.20;;;;;;;;;;4974423;28;20069;-63
2023/10/01 06:18:42;;;;;;;5.68;1.70;;;;;;;;;;4974266;28;20031;-63
2023/10/01 06:21:11;;;;;;;7.03;2.10;;;;;;;;;;4974298;28;20030;-63
2023/10/01 06:23:49;;;;;;;7.20;2.53;;;;;;;;;;4974207;28;20031;-63
2023/10/01 06:29:23;;;;;;;5.45;1.67;;;;;;;;;;4914873;29;20043;-64
2023/10/01 06:32:00;;;;;;;3.38;1.75;;;;;;;;;;4914538;29;20032;-63
2023/10/01 06:34:29;;;;;;;5.82;1.80;;;;;;;;;;4914690;29;20127;-63
2023/10/01 06:36:58;;;;;;;5.57;1.80;;;;;;;;;;4914873;29;20394;-64
2023/10/01 06:39:24;;;;;;;7.85;2.10;;;;;;;;;;4913663;29;20040;-64
2023/10/01 06:41:52;;;;;;;5.65;1.55;;;;;;;;;;4914532;29;20506;-64
2023/10/01 06:44:19;;;;;;;6.38;1.67;;;;;;;;;;4914543;29;20028;-63
2023/10/01 06:46:47;;;;;;;6.00;1.80;;;;;;;;;;4914505;29;20051;-65
2023/10/01 06:49:12;;;;;;;7.40;1.80;;;;;;;;;;4914288;29;20363;-64
2023/10/01 06:51:43;;;;;;;5.35;2.10;;;;;;;;;;4914475;29;20040;-63
2023/10/01 06:54:12;;;;;;;10.75;2.15;;;;;;;;;;4914256;29;20048;-64
2023/10/01 06:56:44;;;;;;;7.95;2.10;;;;;;;;;;4914364;29;20036;-64
2023/10/01 06:59:13;;;;;;;4.82;1.90;;;;;;;;;;4914329;29;20119;-63
2023/10/01 07:01:42;;;;;;;5.40;1.80;;;;;;;;;;4914520;29;20036;-64
2023/10/01 07:04:09;;;;;;;7.70;2.95;;;;;;;;;;4931831;28;20492;-63
2023/10/01 07:06:38;;;;;;;7.43;1.90;;;;;;;;;;4966529;28;20140;-63
2023/10/01 07:09:07;;;;;;;6.75;2.05;;;;;;;;;;4969041;28;20086;-63
2023/10/01 07:11:33;;;;;;;6.22;1.70;;;;;;;;;;4973791;28;20032;-65
2023/10/01 07:14:01;;;;;;;6.32;2.15;;;;;;;;;;4973831;28;20042;-65
2023/10/01 07:16:39;;;;;;;6.70;2.13;;;;;;;;;;4973844;28;20059;-63
2023/10/01 07:19:05;;;;;;;15.63;2.13;;;;;;;;;;4973757;28;20089;-63
2023/10/01 07:21:35;;;;;;;7.65;2.28;;;;;;;;;;4973904;28;20045;-63
2023/10/01 07:24:01;;;;;;;5.10;1.60;;;;;;;;;;4973335;28;20027;-64
2023/10/01 07:26:28;;;;;;;6.55;2.28;;;;;;;;;;4973546;28;20333;-64
2023/10/01 07:28:59;;;;;;;7.78;2.22;;;;;;;;;;4973829;28;20109;-65
2023/10/01 07:31:25;;;;;;;5.90;1.65;;;;;;;;;;4973448;28;20121;-64
2023/10/01 07:33:54;;;;;;;6.90;1.95;;;;;;;;;;4973631;28;20114;-63
2023/10/01 07:36:20;;;;;;;9.90;2.22;;;;;;;;;;4973568;28;20110;-63
2023/10/01 07:38:49;;;;;;;7.15;2.42;;;;;;;;;;4973255;28;20034;-63
2023/10/01 07:41:20;;;;;;;6.70;2.25;;;;;;;;;;4973613;28;20018;-63
2023/10/01 07:43:46;;;;;;;4.05;1.90;;;;;;;;;;4973452;28;20037;-63
2023/10/01 07:46:15;;;;;;;5.07;2.00;;;;;;;;;;4973611;28;20025;-63
2023/10/01 07:48:47;;;;;;;6.43;2.22;;;;;;;;;;4973485;28;20106;-64
2023/10/01 07:51:35;;;;;;;8.63;2.60;;;;;;;;;;4974334;28;20069;-64
2023/10/01 07:54:03;;;;;;;15.00;2.13;;;;;;;;;;4975628;28;20035;-63
2023/10/01 07:56:28;;;;;;;6.95;1.92;;;;;;;;;;4976867;28;20026;-65
2023/10/01 07:58:57;;;;;;;5.72;2.38;;;;;;;;;;4976939;28;20460;-64
2023/10/01 08:01:37;;;;;;;7.10;2.28;;;;;;;;;;4976864;28;20031;-64
2023/10/01 08:04:06;;;;;;;;;;;;;;;;;;4984695;28;20114;-63
2023/10/01 08:06:41;;;;;;;7.28;2.28;;;;;;;;;;4969951;28;19918;-64
2023/10/01 08:09:12;;;;;;;11.60;2.22;;;;;;;;;;4972427;28;20030;-63
2023/10/01 08:14:26;;;;;;;7.55;2.03;;;;;;;;;;4976834;28;20150;-64
2023/10/01 08:16:53;;;;;;;6.63;2.47;;;;;;;;;;4976454;28;20089;-65
2023/10/01 08:19:22;;;;;;;5.88;2.28;;;;;;;;;;4976423;28;20374;-66
2023/10/01 08:21:52;;;;;;;7.57;2.40;;;;;;;;;;4976180;28;20084;-64
2023/10/01 08:24:18;;;;;;;6.50;2.10;;;;;;;;;;4976177;28;20030;-63
2023/10/01 08:27:03;;;;;;;7.22;2.17;;;;;;;;;;4975964;28;20446;-69
2023/10/01 08:29:29;;;;;;;6.57;2.45;;;;;;;;;;4972110;28;22156;-70
2023/10/01 08:34:22;;;;;;;11.70;2.53;;;;;;;;;;4956803;28;20436;-64
2023/10/01 08:36:56;;;;;;;7.10;2.00;;;;;;;;;;4968275;28;20022;-69
2023/10/01 08:39:34;;;;;;;6.15;2.13;;;;;;;;;;4975560;28;20027;-63
2023/10/01 08:42:08;;;;;;;6.05;2.30;;;;;;;;;;4975910;28;20612;-64
2023/10/01 08:44:51;;;;;;;8.20;2.72;;;;;;;;;;4975776;28;20085;-64
2023/10/01 08:52:52;;;;;;;7.68;2.50;;;;;;;;;;4956215;28;20035;-64
2023/10/01 08:56:04;;;;;;;7.55;2.60;;;;;;;;;;4956046;28;20019;-65
2023/10/01 08:58:25;;;;;;;6.13;2.15;;;;;;;;;;4956043;28;20078;-63
2023/10/01 09:00:53;;;;;;;10.07;2.45;;;;;;;;;;4956209;28;20039;-65
2023/10/01 09:03:30;;;;;;;7.20;2.33;;;;;;;;;;4956725;28;20097;-63
2023/10/01 09:06:06;;;;;;;10.50;2.92;;;;;;;;;;4975183;28;20436;-63
2023/10/01 09:08:45;;;;;;;11.25;2.65;;;;;;;;;;4975101;28;20146;-64
2023/10/01 09:11:15;;;;;;;9.65;2.78;;;;;;;;;;4974265;28;20034;-63
2023/10/01 09:13:58;;;;;;;5.63;2.67;;;;;;;;;;4975403;28;20038;-63
2023/10/01 09:16:33;;;;;;;11.25;3.03;;;;;;;;;;4975205;28;20035;-64
2023/10/01 09:19:29;;;;;;;13.98;2.70;;;;;;;;;;4975167;28;20018;-62
2023/10/01 09:21:54;;;;;;;6.90;2.22;;;;;;;;;;4974933;28;20110;-63
2023/10/01 09:24:41;;;;;;;7.80;2.35;;;;;;;;;;4974852;28;20023;-69
2023/10/01 09:27:09;;;;;;;11.18;2.65;;;;;;;;;;4973840;28;20031;-62
2023/10/01 09:29:43;;;;;;;11.57;2.72;;;;;;;;;;4974947;28;20038;-70
2023/10/01 09:32:11;;;;;;;5.63;2.30;;;;;;;;;;4973781;28;20066;-64
2023/10/01 09:34:46;;;;;;;10.57;2.45;;;;;;;;;;4974616;28;20073;-65
2023/10/01 09:37:12;;;;;;;9.63;2.65;;;;;;;;;;4974746;28;20033;-63
2023/10/01 09:39:43;;;;;;;7.50;2.60;;;;;;;;;;4974814;28;20080;-67
2023/10/01 09:42:24;;;;;;;8.25;2.67;;;;;;;;;;4974442;28;20027;-64
2023/10/01 09:44:52;;;;;;;6.75;2.60;;;;;;;;;;4973433;28;20428;-63
2023/10/01 09:47:27;;;;;;;8.35;2.97;;;;;;;;;;4974572;28;20019;-63
2023/10/01 09:49:53;;;;;;;7.60;2.10;;;;;;;;;;4974470;28;20125;-63
2023/10/01 09:52:27;;;;;;;9.50;2.53;;;;;;;;;;4974604;28;20058;-63
2023/10/01 09:55:26;;;;;;;6.70;2.85;;;;;;;;;;4974536;28;20352;-62
2023/10/01 09:57:54;;;;;;;7.63;2.70;;;;;;;;;;4974497;28;20033;-63
2023/10/01 10:00:21;;;;;;;7.90;2.47;;;;;;;;;;4974434;28;20117;-63
2023/10/01 10:02:54;;;;;;;7.97;2.40;;;;;;;;;;4973097;28;20082;-63
2023/10/01 10:05:28;;;;;;;9.45;2.50;;;;;;;;;;4974360;28;20035;-64
2023/10/01 10:08:13;;;;;;;9.65;2.92;;;;;;;;;;4974047;28;20074;-63
2023/10/01 10:10:50;;;;;;;7.45;2.30;;;;;;;;;;4974329;28;20130;-63
2023/10/01 10:13:38;;;;;;;11.77;2.45;;;;;;;;;;4974379;28;20065;-64
2023/10/01 10:19:12;;;;;;;11.40;2.55;;;;;;;;;;4973310;28;20117;-64
2023/10/01 10:24:32;;;;;;;8.57;3.25;;;;;;;;;;4974090;28;20026;-63
2023/10/01 10:27:01;;;;;;;10.40;2.85;;;;;;;;;;4973054;28;20118;-64
2023/10/01 10:30:05;;;;;;;13.80;3.43;;;;;;;;;;4974044;28;20034;-63
2023/10/01 10:32:32;;;;;;;9.80;2.45;;;;;;;;;;4917995;29;20274;-69
2023/10/01 10:35:07;;;;;;;9.63;2.55;;;;;;;;;;4901603;29;20066;-64
2023/10/01 10:37:56;;;;;;;7.80;2.08;;;;;;;;;;4914508;29;20098;-63
2023/10/01 10:40:23;;;;;;;13.02;3.20;;;;;;;;;;4914320;29;20140;-68
2023/10/01 10:43:02;;;;;;;8.85;2.50;;;;;;;;;;4914478;29;20054;-64
2023/10/01 10:45:31;;;;;;;8.38;2.67;;;;;;;;;;4914306;29;20136;-62
2023/10/01 10:47:59;;;;;;;7.25;2.35;;;;;;;;;;4914434;29;20216;-64
2023/10/01 10:50:46;;;;;;;10.90;2.80;;;;;;;;;;4914365;29;20132;-63
2023/10/01 10:53:20;;;;;;;6.38;2.65;;;;;;;;;;4914388;29;20081;-63
2023/10/01 10:55:54;;;;;;;8.85;2.75;;;;;;;;;;4914331;29;20064;-65
2023/10/01 10:58:22;;;;;;;10.50;2.55;;;;;;;;;;4914102;29;20095;-65
2023/10/01 11:00:48;;;;;;;7.95;2.30;;;;;;;;;;4914020;29;20119;-63
2023/10/01 11:03:16;;;;;;;7.45;2.42;;;;;;;;;;4914135;29;20047;-63
2023/10/01 11:05:50;;;;;;;9.77;2.55;;;;;;;;;;4914225;29;20039;-64
2023/10/01 11:08:28;;;;;;;7.15;2.65;;;;;;;;;;4923300;28;20047;-66
2023/10/01 11:10:55;;;;;;;8.10;2.88;;;;;;;;;;4973644;28;20019;-63
2023/10/01 11:13:45;;;;;;;6.57;2.83;;;;;;;;;;4973545;28;20030;-62
2023/10/01 11:16:16;;;;;;;7.68;2.42;;;;;;;;;;4973584;28;20019;-62
2023/10/01 11:18:44;;;;;;;7.22;2.55;;;;;;;;;;4973563;28;20030;-62
2023/10/01 11:21:13;;;;;;;7.55;2.78;;;;;;;;;;4973329;28;20081;-65
2023/10/01 11:23:39;;;;;;;7.88;3.15;;;;;;;;;;4973343;28;20521;-62
2023/10/01 11:26:07;;;;;;;12.05;3.35;;;;;;;;;;4974403;28;20066;-63
2023/10/01 11:28:41;;;;;;;11.68;2.80;;;;;;;;;;4977339;28;20019;-63
2023/10/01 11:31:24;;;;;;;8.30;2.70;;;;;;;;;;4977028;28;20039;-65
2023/10/01 11:34:04;;;;;;;13.10;3.47;;;;;;;;;;4974241;28;20054;-63
2023/10/01 11:36:38;;;;;;;14.52;3.42;;;;;;;;;;4957932;28;20078;-63
2023/10/01 11:39:04;;;;;;;11.43;2.90;;;;;;;;;;4957782;28;20034;-64
2023/10/01 11:41:41;;;;;;;10.25;3.17;;;;;;;;;;4957626;28;20098;-63
2023/10/01 11:44:08;;;;;;;12.70;3.35;;;;;;;;;;4957372;29;20087;-64
2023/10/01 11:46:57;;;;;;;11.13;3.70;;;;;;;;;;4957472;28;20078;-63
2023/10/01 11:49:34;;;;;;;12.52;3.30;;;;;;;;;;4957368;28;20043;-70
2023/10/01 11:52:21;;;;;;;10.27;2.92;;;;;;;;;;4957478;28;20114;-64
2023/10/01 11:54:55;;;;;;;8.88;2.55;;;;;;;;;;4957384;28;20035;-70
2023/10/01 11:57:23;;;;;;;8.82;2.47;;;;;;;;;;4957321;28;20050;-65
2023/10/01 11:59:56;;;;;;;8.98;2.90;;;;;;;;;;4957202;28;20042;-64
2023/10/01 12:02:32;;;;;;;10.23;3.00;;;;;;;;;;4957462;28;20509;-64
2023/10/01 12:04:58;;;;;;;8.32;2.83;;;;;;;;;;4957251;28;20043;-69
2023/10/01 12:07:50;;;;;;;7.70;2.60;;;;;;;;;;4958324;28;20047;-63
2023/10/01 12:10:35;;;;;;;11.65;2.75;;;;;;;;;;4975865;28;20062;-65
2023/10/01 12:13:01;;;;;;;8.20;2.90;;;;;;;;;;4976135;28;20027;-64
2023/10/01 12:18:36;;;;;;;12.77;3.28;;;;;;;;;;4954907;29;20198;-64
2023/10/01 12:21:24;;;;;;;10.10;3.55;;;;;;;;;;4954927;29;20057;-64
2023/10/01 12:23:49;;;;;;;8.38;3.17;;;;;;;;;;4954614;29;20432;-64
2023/10/01 12:29:11;;;;;;;11.18;2.67;;;;;;;;;;4954582;29;20070;-64
2023/10/01 12:31:25;;;;;;;7.50;2.65;;;;;;;;;;4954549;29;20039;-63
2023/10/01 12:33:58;;;;;;;8.88;2.67;;;;;;;;;;4954388;29;20043;-67
2023/10/01 12:36:44;;;;;;;10.02;3.10;;;;;;;;;;4935508;29;20087;-64
2023/10/01 12:44:25;;;;;;;8.48;2.90;;;;;;;;;;4935227;29;20032;-64
2023/10/01 12:47:01;;;;;;;10.93;3.10;;;;;;;;;;4935276;29;20077;-65
2023/10/01 12:49:33;;;;;;;10.70;3.45;;;;;;;;;;4935260;29;20024;-65
2023/10/01 12:52:04;;;;;;;14.93;3.90;;;;;;;;;;4941916;29;20043;-63
2023/10/01 12:54:36;;;;;;;9.63;3.72;;;;;;;;;;4956384;28;20382;-65
2023/10/01 12:57:23;;;;;;;12.15;3.28;;;;;;;;;;4956071;28;20042;-67
2023/10/01 13:00:21;;;;;;;11.50;3.20;;;;;;;;;;4956009;28;20512;-66
2023/10/01 13:02:46;;;;;;;12.55;3.60;;;;;;;;;;4956091;29;20152;-65
2023/10/01 13:05:21;;;;;;;9.32;3.20;;;;;;;;;;4956280;28;20381;-69
2023/10/01 13:07:48;;;;;;;11.32;3.20;;;;;;;;;;4960210;28;20046;-61
2023/10/01 13:10:16;;;;;;;11.02;3.47;;;;;;;;;;4975092;28;20066;-62
2023/10/01 13:12:59;;;;;;;10.43;3.10;;;;;;;;;;4975177;28;20031;-61
2023/10/01 13:15:29;;;;;;;11.55;2.95;;;;;;;;;;4975334;28;20054;-60
2023/10/01 13:18:04;;;;;;;8.70;3.20;;;;;;;;;;4973984;28;20058;-63
2023/10/01 13:20:31;;;;;;;9.77;3.17;;;;;;;;;;4975251;28;20030;-63
2023/10/01 13:23:06;;;;;;;14.85;3.40;;;;;;;;;;4975019;28;20108;-64
2023/10/01 13:25:33;;;;;;;11.63;2.92;;;;;;;;;;4974785;28;20035;-61
2023/10/01 13:28:02;;;;;;;9.05;3.05;;;;;;;;;;4974918;28;20046;-61
2023/10/01 13:30:30;;;;;;;10.32;3.20;;;;;;;;;;4974838;28;20113;-62
2023/10/01 13:33:14;;;;;;;9.48;3.33;;;;;;;;;;4974877;28;20377;-63
2023/10/01 13:35:50;;;;;;;10.05;3.50;;;;;;;;;;4963514;28;20066;-67
2023/10/01 14:08:43;;;;;;;10.45;3.42;;;;;;;;;;4955435;28;20107;-62
2023/10/01 14:11:08;;;;;;;10.98;3.13;;;;;;;;;;4974331;28;20093;-64
2023/10/01 14:13:35;;;;;;;9.60;3.47;;;;;;;;;;4974256;28;20037;-62
2023/10/01 14:21:32;;;;;;;11.98;3.40;;;;;;;;;;4974325;28;20101;-62
2023/10/01 14:26:43;;;;;;;8.85;3.13;;;;;;;;;;4955080;29;20038;-61
2023/10/01 14:29:09;;;;;;;8.63;3.33;;;;;;;;;;4954794;28;20027;-65
2023/10/01 14:31:50;;;;;;;13.00;3.42;;;;;;;;;;4955644;28;20037;-64
2023/10/01 14:34:20;;;;;;;12.18;3.35;;;;;;;;;;4973865;28;20030;-63
2023/10/01 14:36:46;;;;;;;;;;;;;;;;;;4963523;28;20033;-62
2023/10/01 14:39:12;;;;;;;8.25;2.95;;;;;;;;;;4954486;28;20012;-63
2023/10/01 14:41:42;;;;;;;10.00;3.13;;;;;;;;;;4954661;28;20042;-62
2023/10/01 14:44:10;;;;;;;9.93;3.55;;;;;;;;;;4954564;28;20444;-62
2023/10/01 14:46:47;;;;;;;10.40;3.45;;;;;;;;;;4954462;28;20039;-63
2023/10/01 14:49:13;;;;;;;8.15;3.05;;;;;;;;;;4954601;28;20043;-62
2023/10/01 14:51:48;;;;;;;7.95;3.30;;;;;;;;;;4954486;28;20031;-62
2023/10/01 14:54:17;;;;;;;10.70;3.30;;;;;;;;;;4954367;28;20470;-63
2023/10/01 14:56:56;;;;;;;10.15;3.00;;;;;;;;;;4954626;28;20111;-63
2023/10/01 14:59:23;;;;;;;8.65;3.00;;;;;;;;;;4954485;28;20058;-63
2023/10/01 15:01:50;;;;;;;11.05;3.45;;;;;;;;;;4956651;28;20031;-63
2023/10/01 15:04:22;;;;;;;9.95;3.33;;;;;;;;;;4958430;28;20117;-63
2023/10/01 15:06:56;;;;;;;13.60;3.42;;;;;;;;;;4957987;28;20051;-63
2023/10/01 15:09:25;;;;;;;8.75;3.53;;;;;;;;;;4975221;28;20388;-62
2023/10/01 15:11:54;;;;;;;7.25;3.28;;;;;;;;;;4977107;28;20555;-63
2023/10/01 15:14:26;;;;;;;10.53;3.37;;;;;;;;;;4977399;28;20495;-62
2023/10/01 15:16:53;;;;;;;8.05;3.17;;;;;;;;;;4977523;28;20340;-63
2023/10/01 15:19:19;;;;;;;9.80;2.92;;;;;;;;;;4977401;28;20625;-63
2023/10/01 15:21:48;;;;;;;8.40;3.10;;;;;;;;;;4977236;28;20018;-64
2023/10/01 15:24:14;;;;;;;9.82;3.17;;;;;;;;;;4977046;28;20393;-62
2023/10/01 15:26:43;;;;;;;9.23;3.10;;;;;;;;;;4977358;28;20118;-62
2023/10/01 15:29:09;;;;;;;7.43;3.08;;;;;;;;;;4977341;28;20022;-62
2023/10/01 15:31:34;;;;;;;10.40;2.88;;;;;;;;;;4977054;28;20030;-62
2023/10/01 15:34:04;;;;;;;8.88;3.00;;;;;;;;;;4977132;28;20026;-62
2023/10/01 15:36:40;;;;;;;8.27;3.38;;;;;;;;;;4977054;28;20039;-64
2023/10/01 15:39:36;;;;;;;8.20;3.30;;;;;;;;;;4958790;28;20123;-64
2023/10/01 15:42:12;;;;;;;9.30;3.20;;;;;;;;;;4957851;28;20039;-66
2023/10/01 15:44:50;;;;;;;9.85;3.53;;;;;;;;;;4957660;28;20032;-63
2023/10/01 15:47:31;;;;;;;9.68;3.10;;;;;;;;;;4957509;28;20035;-64
2023/10/01 15:50:06;;;;;;;8.85;3.15;;;;;;;;;;4957566;28;20462;-63
2023/10/01 15:52:45;;;;;;;7.65;3.05;;;;;;;;;;4957516;28;20063;-63
2023/10/01 15:55:13;;;;;;;8.10;3.03;;;;;;;;;;4957574;28;20032;-63
2023/10/01 15:57:39;;;;;;;10.27;3.47;;;;;;;;;;4957492;28;20273;-69
2023/10/01 16:02:50;;;;;;;7.75;2.97;;;;;;;;;;4957462;29;20037;-62
2023/10/01 16:05:16;;;;;;;10.93;3.67;;;;;;;;;;4957127;28;20110;-62
2023/10/01 16:07:45;;;;;;;6.18;2.88;;;;;;;;;;4960750;28;20411;-62
2023/10/01 16:10:11;;;;;;;7.15;2.88;;;;;;;;;;4976483;28;20042;-63
2023/10/01 16:12:40;;;;;;;7.60;2.95;;;;;;;;;;4975934;28;20022;-63
2023/10/01 16:15:10;;;;;;;18.10;3.20;;;;;;;;;;4976507;28;20027;-63
2023/10/01 16:17:35;;;;;;;12.23;3.42;;;;;;;;;;4976462;28;20535;-62
2023/10/01 16:20:01;;;;;;;7.68;2.70;;;;;;;;;;4976309;28;20035;-62
2023/10/01 16:22:27;;;;;;;10.52;3.28;;;;;;;;;;4976245;28;20184;-62
2023/10/01 16:24:55;;;;;;;7.63;3.00;;;;;;;;;;4976235;28;20093;-62
2023/10/01 16:27:26;;;;;;;9.88;2.80;;;;;;;;;;4976164;28;20400;-63